WetterOnline ( https://www.wetteronline.de )

Wetter aktuell Schönberg

Aktuelles Wetter: Lübeck/Blankensee (15m)

6-stündlich | Neueste Meldungen
Ortszeit Temperatur Wetter
Mi, 16.10. 2:00 12.9° C wolkig
Di, 15.10. 20:00 13.3° C Nebel
Di, 15.10. 14:00 19.5° C leicht bewölkt
Di, 15.10. 8:00 9.7° C wolkig
Di, 15.10. 2:00 11.5° C wolkig
Mo, 14.10. 20:00 14.0° C bedeckt
Mo, 14.10. 14:00 15.7° C bedeckt
Mo, 14.10. 8:00 13.1° C bedeckt
Ortszeit Temperatur Wetter
Mi, 16.10. 2:30 12.5° C bedeckt
Mi, 16.10. 2:20 12.5° C bedeckt
Mi, 16.10. 2:10 12.3° C bewölkt
Mi, 16.10. 2:00 12.9° C wolkig
Mi, 16.10. 1:40 13.2° C leicht bewölkt
Mi, 16.10. 1:30 13.5° C wolkig
Mi, 16.10. 1:00 13.2° C wolkig
Mi, 16.10. 0:30 13.2° C bewölkt
Mi, 16.10. 0:00 12.7° C wolkig
Di, 15.10. 23:30 12.7° C wolkig
Ortszeit Relative Feuchte Sichtweite
Mi, 16.10. 2:00 98% 5.0 km
Di, 15.10. 20:00 99% <100 m
Di, 15.10. 14:00 72% 45 km
Di, 15.10. 8:00 100% 17 km
Di, 15.10. 2:00 94% 35 km
Mo, 14.10. 20:00 84% 40 km
Mo, 14.10. 14:00 76% 30 km
Mo, 14.10. 8:00 84% 40 km
Ortszeit Relative Feuchte Sichtweite
Mi, 16.10. 2:30 100% 3.4 km
Mi, 16.10. 2:20 100% -
Mi, 16.10. 2:10 99% -
Mi, 16.10. 2:00 98% 5.0 km
Mi, 16.10. 1:40 99% -
Mi, 16.10. 1:30 99% 9 km
Mi, 16.10. 1:00 100% 6 km
Mi, 16.10. 0:30 100% 5.0 km
Mi, 16.10. 0:00 100% 4.5 km
Di, 15.10. 23:30 100% 5.0 km
Ortszeit Niederschlagsmenge Niederschlagsart
Mi, 16.10. 2:00 0.0 l/m2 in 6 Std. -
Di, 15.10. 20:00 0.0 l/m2 in 12 Std. -
Di, 15.10. 14:00 0.0 l/m2 in 6 Std. -
Di, 15.10. 8:00 0.0 l/m2 in 12 Std. -
Di, 15.10. 2:00 0.0 l/m2 in 6 Std. -
Mo, 14.10. 20:00 0.0 l/m2 in 12 Std. -
Mo, 14.10. 14:00 0.0 l/m2 in 6 Std. -
Mo, 14.10. 8:00 2 l/m2 in 12 Std. -
Ortszeit Niederschlagsmenge Niederschlagsart
Mi, 16.10. 2:30 0.0 l/m2 in 1 Std. -
Mi, 16.10. 2:20 keine Meldung -
Mi, 16.10. 2:10 keine Meldung -
Mi, 16.10. 2:00 0.0 l/m2 in 1 Std. -
Mi, 16.10. 1:40 keine Meldung -
Mi, 16.10. 1:30 0.0 l/m2 in 1 Std. -
Mi, 16.10. 1:00 0.0 l/m2 in 1 Std. -
Mi, 16.10. 0:30 0.0 l/m2 in 1 Std. -
Mi, 16.10. 0:00 0.0 l/m2 in 1 Std. -
Di, 15.10. 23:30 0.0 l/m2 in 1 Std. -
Ortszeit Stärke Spitze Richtung
km/h Bft. km/h Grad Sektor
Mi, 16.10. 2:00 6 1 15 350° N
Di, 15.10. 20:00 0 0 14 - -
Di, 15.10. 14:00 4 1 18 220° SW
Di, 15.10. 8:00 7 2 14 70° O
Di, 15.10. 2:00 9 2 22 80° O
Mo, 14.10. 20:00 17 3 24 60° NO
Mo, 14.10. 14:00 4 1 18 250° W
Mo, 14.10. 8:00 7 2 43 240° SW
Ortszeit Stärke Spitze Richtung
km/h Bft. km/h Grad Sektor
Mi, 16.10. 2:30 4 1 7 260° W
Mi, 16.10. 2:20 4 1 - 260° W
Mi, 16.10. 2:10 2 1 - 310° NW
Mi, 16.10. 2:00 6 1 15 350° N
Mi, 16.10. 1:40 4 1 - 360° N
Mi, 16.10. 1:30 9 2 15 10° N
Mi, 16.10. 1:00 6 1 13 320° NW
Mi, 16.10. 0:30 7 2 11 340° N
Mi, 16.10. 0:00 7 2 11 330° NW
Di, 15.10. 23:30 4 1 4 360° N
Ortszeit Untergrenze Bedeckung Gattung
total tief tief mittel hoch
Mi, 16.10. 2:00 4500 m 6/8 2/8 - - -
Di, 15.10. 20:00 9000 m 7/8 0/8 - - -
Di, 15.10. 14:00 7800 m 7/8 0/8 - - -
Di, 15.10. 8:00 9000 m 8/8 0/8 - - -
Di, 15.10. 2:00 8100 m 8/8 0/8 - - -
Mo, 14.10. 20:00 1500 m 8/8 8/8 - - -
Mo, 14.10. 14:00 3900 m 8/8 8/8 - - -
Mo, 14.10. 8:00 4800 m 8/8 8/8 - - -
Ortszeit Bedeckungsgrad in Achtel und Wolkenuntergrenze
Mi, 16.10. 2:30 5(4500m) 8(5700m)
Mi, 16.10. 2:20 5(4500m) 8(5700m)
Mi, 16.10. 2:10 7(4500m) 7(5700m) 7(9000m)
Mi, 16.10. 2:00 2(4500m) 6(9000m) 6(9000m)
Mi, 16.10. 1:40 4(9000m) 4(10500m)
Mi, 16.10. 1:30 7(9000m) 7(10500m)
Mi, 16.10. 1:00 2(420m) 7(9000m) 7(10500m)
Mi, 16.10. 0:30 5(420m) 7(660m) 8(9000m)
Mi, 16.10. 0:00 3(540m) 5(6900m) 8(10500m)
Di, 15.10. 23:30 2(<30m) 8(6900m) 8(7800m)
Ortszeit Luftdruck NN (hPa) Tendenz (hPa in 3 Std.)
Mi, 16.10. 2:00 1005 - 0,8
Di, 15.10. 20:00 1006 + 0,5
Di, 15.10. 14:00 1006 - 0,6
Di, 15.10. 8:00 1007 - 1,4
Di, 15.10. 2:00 1010 - 1,8
Mo, 14.10. 20:00 1014 - 0,4
Mo, 14.10. 14:00 1016 + 0,5
Mo, 14.10. 8:00 1013 + 1,9
Ortszeit Luftdruck NN (hPa) Tendenz (hPa in 3 Std.)
Mi, 16.10. 2:30 1005 - 0,8
Mi, 16.10. 2:20 1005 keine Meldung
Mi, 16.10. 2:10 1005 keine Meldung
Mi, 16.10. 2:00 1005 - 0,8
Mi, 16.10. 1:40 1005 keine Meldung
Mi, 16.10. 1:30 1005 - 0,9
Mi, 16.10. 1:00 1006 - 0,4
Mi, 16.10. 0:30 1006 - 0,4
Mi, 16.10. 0:00 1006 - 0,2
Di, 15.10. 23:30 1006 - 0,1
Ortszeit Schneehöhe (cm)
Mi, 16.10. 2:00 0
Di, 15.10. 20:00 0
Di, 15.10. 14:00 0
Di, 15.10. 8:00 0
Di, 15.10. 2:00 0
Mo, 14.10. 20:00 0
Mo, 14.10. 14:00 0
Mo, 14.10. 8:00 0
Ortszeit Schneehöhe (cm)
Mi, 16.10. 2:30 0
Mi, 16.10. 2:20 0
Mi, 16.10. 2:10 0
Mi, 16.10. 2:00 0
Mi, 16.10. 1:40 0
Mi, 16.10. 1:30 0
Mi, 16.10. 1:00 0
Mi, 16.10. 0:30 0
Mi, 16.10. 0:00 0
Di, 15.10. 23:30 0
Link zu dieser Seite / Seite empfehlen

Das Wetter in ...